Sea Thames — V2BV1 — position and weather

sailwx.info

Track history (hours):
 
Tides and Currents Weather Stations Pressure Air Temp Water Temp Dewpoint Dewpoint Depression Visibility Wind Speed Wind Dir Waves Ship Positions

Sea Thames

Last reported at 2015-Jul-04 18:17 UTC. Time now 2015-Jul-06 15:45 UTC.
Position N 53°43' W 000°23'.

Length 87 m; draft 4 m.

Type: Ship. MMSI: 304933000.

Date/timePositionNaut miles runAvg speedWind from/ knotsBaromVisibWave heightAir tempDewpointWater temp
2015-Jul-04 18:17N 53°43' W 000°23'6 8.7
2015-Jul-04 17:32N 53°40' W 000°12'1111.0
2015-Jul-04 16:31N 53°35' E 000°04'59 8.0
2015-Jul-04 09:06N 52°59' E 001°22'3 5.9
2015-Jul-04 08:33N 52°57' E 001°27'48 8.0
2015-Jul-04 02:33N 52°11' E 001°51'77 6.3
2015-Jul-03 14:24N 51°25' E 003°30'6 6.9
2015-Jul-03 13:30N 51°27' E 003°39'2 0.2
2015-Jul-03 03:29N 51°28' E 003°42'0 0.0
2015-Jul-03 02:32N 51°28' E 003°42'0 0.0
2015-Jul-02 11:15N 51°28' E 003°42'3 4.5
2015-Jul-02 10:33N 51°26' E 003°38'  
2015-Jun-29 21:16N 51°37' W 008°04'6 8.2
2015-Jun-29 20:33N 51°42' W 008°11'8 7.8
2015-Jun-29 19:34N 51°49' W 008°16'7 7.3
2015-Jun-29 18:33N 51°54' W 008°24'1 0.1
2015-Jun-28 16:19N 51°54' W 008°27'5 6.5
2015-Jun-28 15:33N 51°52' W 008°20'6 6.3
2015-Jun-28 14:33N 51°46' W 008°15'1 1.0
2015-Jun-28 13:33N 51°47' W 008°15'2 1.6
2015-Jun-28 12:33N 51°46' W 008°15'309 7.1
2015-Jun-26 17:19N 50°31' W 000°17'15 8.0
2015-Jun-26 15:29N 50°34' E 000°05'171 8.4
2015-Jun-25 19:08N 52°01' E 003°59'5 9.3
2015-Jun-25 18:33N 51°59' E 004°07'  
Track history (hours):
 
Tides and Currents Weather Stations Pressure Air Temp Water Temp Dewpoint Dewpoint Depression Visibility Wind Speed Wind Dir Waves Ship Positions

Sea Thames

Last reported at 2015-Jul-04 18:17 UTC. Time now 2015-Jul-06 15:45 UTC.
Position N 53°43' W 000°23'.

Length 87 m; draft 4 m.

Type: Ship. MMSI: 304933000.

Date/timePositionNaut miles runAvg speedWind from/ knotsBaromVisibWave heightAir tempDewpointWater temp
2015-Jul-04 18:17N 53°43' W 000°23'6 8.7
2015-Jul-04 17:32N 53°40' W 000°12'1111.0
2015-Jul-04 16:31N 53°35' E 000°04'59 8.0
2015-Jul-04 09:06N 52°59' E 001°22'3 5.9
2015-Jul-04 08:33N 52°57' E 001°27'48 8.0
2015-Jul-04 02:33N 52°11' E 001°51'77 6.3
2015-Jul-03 14:24N 51°25' E 003°30'6 6.9
2015-Jul-03 13:30N 51°27' E 003°39'2 0.2
2015-Jul-03 03:29N 51°28' E 003°42'0 0.0
2015-Jul-03 02:32N 51°28' E 003°42'0 0.0
2015-Jul-02 11:15N 51°28' E 003°42'3 4.5
2015-Jul-02 10:33N 51°26' E 003°38'  
2015-Jun-29 21:16N 51°37' W 008°04'6 8.2
2015-Jun-29 20:33N 51°42' W 008°11'8 7.8
2015-Jun-29 19:34N 51°49' W 008°16'7 7.3
2015-Jun-29 18:33N 51°54' W 008°24'1 0.1
2015-Jun-28 16:19N 51°54' W 008°27'5 6.5
2015-Jun-28 15:33N 51°52' W 008°20'6 6.3
2015-Jun-28 14:33N 51°46' W 008°15'1 1.0
2015-Jun-28 13:33N 51°47' W 008°15'2 1.6
2015-Jun-28 12:33N 51°46' W 008°15'309 7.1
2015-Jun-26 17:19N 50°31' W 000°17'15 8.0
2015-Jun-26 15:29N 50°34' E 000°05'171 8.4
2015-Jun-25 19:08N 52°01' E 003°59'5 9.3
2015-Jun-25 18:33N 51°59' E 004°07'  

Dump ship's entire track history